Time;durP1;ratioP1;P1;durP2;ratioP2;P2;SDS_P1;SDS_P2;PMS_P1;PMS_P2;Temp;Humidity;BMP_temperature;BMP_pressure;BME280_temperature;BME280_humidity;BME280_pressure;Samples;Min_cycle;Max_cycle;Signal;HPM_P1;HPM_P2
2023/12/11 00:02:04;;;;;;;23.50;11.17;;;;;;;;;;5048264;28;20235;-66
2023/12/11 00:04:31;;;;;;;214.83;70.90;;;;;;;;;;5047570;28;20555;-65
2023/12/11 00:06:58;;;;;;;3.43;2.17;;;;;;;;;;5045980;28;20315;-65
2023/12/11 00:09:25;;;;;;;13.47;5.57;;;;;;;;;;5043176;28;20824;-65
2023/12/11 00:11:53;;;;;;;442.27;198.90;;;;;;;;;;5028302;28;20216;-65
2023/12/11 00:14:20;;;;;;;42.27;15.53;;;;;;;;;;5029278;28;20241;-65
2023/12/11 00:16:47;;;;;;;45.60;20.97;;;;;;;;;;5040885;28;20244;-65
2023/12/11 00:19:14;;;;;;;14.03;7.93;;;;;;;;;;5047675;28;20218;-65
2023/12/11 00:21:42;;;;;;;207.53;83.37;;;;;;;;;;5047451;28;20212;-65
2023/12/11 00:24:09;;;;;;;439.80;199.43;;;;;;;;;;5045486;28;20287;-65
2023/12/11 00:26:36;;;;;;;40.33;19.50;;;;;;;;;;5036253;28;20210;-65
2023/12/11 00:29:04;;;;;;;306.27;155.10;;;;;;;;;;5042804;28;20232;-65
2023/12/11 00:31:32;;;;;;;147.37;72.13;;;;;;;;;;5040712;28;20215;-65
2023/12/11 00:33:59;;;;;;;19.20;10.33;;;;;;;;;;5038770;28;20226;-66
2023/12/11 00:36:26;;;;;;;31.70;21.73;;;;;;;;;;5037956;28;20211;-65
2023/12/11 00:38:53;;;;;;;14.53;10.03;;;;;;;;;;5037404;28;20199;-66
2023/12/11 00:41:20;;;;;;;12.87;7.47;;;;;;;;;;5036928;28;20212;-65
2023/12/11 00:43:47;;;;;;;10.30;5.63;;;;;;;;;;5037090;28;20204;-66
2023/12/11 00:46:15;;;;;;;13.03;9.37;;;;;;;;;;5035924;28;20203;-65
2023/12/11 00:48:42;;;;;;;30.37;19.00;;;;;;;;;;5036953;28;20216;-65
2023/12/11 00:51:15;;;;;;;67.03;37.43;;;;;;;;;;5038131;28;20287;-66
2023/12/11 00:53:42;;;;;;;43.83;21.60;;;;;;;;;;5036191;28;20203;-65
2023/12/11 00:56:10;;;;;;;25.83;13.47;;;;;;;;;;5037348;28;20203;-65
2023/12/11 00:58:37;;;;;;;113.47;48.63;;;;;;;;;;5037216;28;20941;-65
2023/12/11 01:01:04;;;;;;;20.10;11.57;;;;;;;;;;5038550;28;20204;-65
2023/12/11 01:03:32;;;;;;;27.07;12.90;;;;;;;;;;5035637;28;20216;-65
2023/12/11 01:05:59;;;;;;;16.40;8.03;;;;;;;;;;5039731;28;20204;-65
2023/12/11 01:08:27;;;;;;;51.03;22.07;;;;;;;;;;5036005;28;20233;-65
2023/12/11 01:10:54;;;;;;;64.13;22.00;;;;;;;;;;5037770;28;20204;-66
2023/12/11 01:13:22;;;;;;;21.37;10.27;;;;;;;;;;5035408;28;20231;-65
2023/12/11 01:15:49;;;;;;;72.47;28.90;;;;;;;;;;5037842;28;20551;-66
2023/12/11 01:18:16;;;;;;;74.73;32.37;;;;;;;;;;5036117;28;20236;-66
2023/12/11 01:20:44;;;;;;;26.10;8.77;;;;;;;;;;5034435;28;20199;-65
2023/12/11 01:23:11;;;;;;;68.20;27.83;;;;;;;;;;5037199;28;20291;-65
2023/12/11 01:25:38;;;;;;;29.30;11.10;;;;;;;;;;5036827;28;20219;-66
2023/12/11 01:28:06;;;;;;;68.20;25.37;;;;;;;;;;5036114;28;20227;-66
2023/12/11 01:30:33;;;;;;;72.90;25.30;;;;;;;;;;5036757;28;20718;-66
2023/12/11 01:32:59;;;;;;;66.80;19.30;;;;;;;;;;5037280;28;20212;-67
2023/12/11 01:35:26;;;;;;;87.77;24.87;;;;;;;;;;5037563;28;20584;-66
2023/12/11 01:37:54;;;;;;;54.63;16.90;;;;;;;;;;5037952;28;20203;-66
2023/12/11 01:40:21;;;;;;;19.27;6.10;;;;;;;;;;5032908;28;20680;-66
2023/12/11 01:42:49;;;;;;;11.77;4.27;;;;;;;;;;5037082;28;20227;-66
2023/12/11 01:45:43;;;;;;;15.60;4.83;;;;;;;;;;5037218;28;20203;-66
2023/12/11 01:48:11;;;;;;;52.70;17.03;;;;;;;;;;4996046;28;20224;-66
2023/12/11 01:50:38;;;;;;;16.97;4.90;;;;;;;;;;5027571;28;20203;-66
2023/12/11 01:53:07;;;;;;;38.27;9.90;;;;;;;;;;5041194;28;20207;-66
2023/12/11 01:55:35;;;;;;;29.20;8.70;;;;;;;;;;5036461;28;20207;-66
2023/12/11 01:58:03;;;;;;;53.93;14.57;;;;;;;;;;5042330;28;20666;-66
2023/12/11 02:00:30;;;;;;;100.97;22.40;;;;;;;;;;5030989;28;20208;-66
2023/12/11 02:02:57;;;;;;;213.67;46.20;;;;;;;;;;5044532;28;20211;-66
2023/12/11 02:05:24;;;;;;;64.10;15.77;;;;;;;;;;5031185;28;20197;-66
2023/12/11 02:07:51;;;;;;;41.67;10.30;;;;;;;;;;5035079;28;20250;-66
2023/12/11 02:10:20;;;;;;;77.67;19.03;;;;;;;;;;5026537;28;20207;-66
2023/12/11 02:12:47;;;;;;;116.73;24.50;;;;;;;;;;5040123;28;20223;-65
2023/12/11 02:15:14;;;;;;;66.37;13.17;;;;;;;;;;5042728;28;20223;-66
2023/12/11 02:17:43;;;;;;;37.30;11.27;;;;;;;;;;5045940;28;20666;-67
2023/12/11 02:20:11;;;;;;;56.53;13.47;;;;;;;;;;5046484;28;20224;-66
2023/12/11 02:22:38;;;;;;;109.20;20.20;;;;;;;;;;5044257;28;20207;-66
2023/12/11 02:25:06;;;;;;;27.33;6.83;;;;;;;;;;5032678;28;20218;-66
2023/12/11 02:27:34;;;;;;;12.87;3.70;;;;;;;;;;5043111;28;20203;-66
2023/12/11 02:30:01;;;;;;;13.27;2.83;;;;;;;;;;5045636;28;20200;-66
2023/12/11 02:32:28;;;;;;;15.77;3.73;;;;;;;;;;5038756;28;20201;-66
2023/12/11 02:34:55;;;;;;;149.80;24.73;;;;;;;;;;5032204;28;20218;-66
2023/12/11 02:37:22;;;;;;;78.73;17.10;;;;;;;;;;5042260;28;20693;-66
2023/12/11 02:39:49;;;;;;;56.13;11.83;;;;;;;;;;5046292;28;20207;-66
2023/12/11 02:42:16;;;;;;;63.80;14.13;;;;;;;;;;5043734;28;20208;-66
2023/12/11 02:44:45;;;;;;;28.57;7.87;;;;;;;;;;5029183;28;20197;-65
2023/12/11 02:47:12;;;;;;;20.43;5.47;;;;;;;;;;5036105;28;20207;-66
2023/12/11 02:49:39;;;;;;;75.20;17.97;;;;;;;;;;5034136;28;20702;-66
2023/12/11 02:52:06;;;;;;;55.10;16.60;;;;;;;;;;5044421;28;20230;-65
2023/12/11 02:54:33;;;;;;;17.03;5.20;;;;;;;;;;5036732;28;20200;-65
2023/12/11 02:57:00;;;;;;;93.30;33.00;;;;;;;;;;5045455;28;20234;-66
2023/12/11 02:59:27;;;;;;;66.67;23.33;;;;;;;;;;5048342;28;20210;-66
2023/12/11 03:01:56;;;;;;;13.80;7.07;;;;;;;;;;5034510;28;20208;-66
2023/12/11 03:04:23;;;;;;;10.53;5.03;;;;;;;;;;5046300;28;20200;-66
2023/12/11 03:06:50;;;;;;;6.77;3.83;;;;;;;;;;5043628;28;20290;-66
2023/12/11 03:09:17;;;;;;;2.00;1.70;;;;;;;;;;5048637;28;20223;-66
2023/12/11 03:11:44;;;;;;;2.60;1.93;;;;;;;;;;5034202;28;20596;-66
2023/12/11 03:14:11;;;;;;;6.43;3.03;;;;;;;;;;5048433;28;20223;-66
2023/12/11 03:16:38;;;;;;;15.40;7.33;;;;;;;;;;5045590;28;20464;-66
2023/12/11 03:19:06;;;;;;;5.33;3.13;;;;;;;;;;5048262;28;20208;-66
2023/12/11 03:21:33;;;;;;;7.37;2.70;;;;;;;;;;5041870;28;20600;-66
2023/12/11 03:24:00;;;;;;;7.47;1.60;;;;;;;;;;5043088;28;20201;-66
2023/12/11 03:26:27;;;;;;;21.00;9.40;;;;;;;;;;5039800;28;20206;-65
2023/12/11 03:28:54;;;;;;;33.77;15.10;;;;;;;;;;5032160;28;20231;-66
2023/12/11 03:31:21;;;;;;;42.83;13.33;;;;;;;;;;5033744;28;20215;-67
2023/12/11 03:33:48;;;;;;;83.10;24.17;;;;;;;;;;5046538;28;20204;-66
2023/12/11 03:36:17;;;;;;;18.13;6.13;;;;;;;;;;5049088;28;20215;-66
2023/12/11 03:38:44;;;;;;;10.73;2.93;;;;;;;;;;5046464;28;20192;-66
2023/12/11 03:41:11;;;;;;;5.03;2.40;;;;;;;;;;5032300;28;20259;-67
2023/12/11 03:43:38;;;;;;;2.10;1.30;;;;;;;;;;5029004;28;20777;-66
2023/12/11 03:46:05;;;;;;;29.80;6.43;;;;;;;;;;5035534;28;20207;-66
2023/12/11 03:48:32;;;;;;;8.70;2.37;;;;;;;;;;5034221;28;20271;-66
2023/12/11 03:50:59;;;;;;;7.80;2.00;;;;;;;;;;5047002;28;20582;-66
2023/12/11 03:53:28;;;;;;;13.87;1.93;;;;;;;;;;5049068;28;20220;-66
2023/12/11 03:55:55;;;;;;;28.37;6.87;;;;;;;;;;5048740;28;20229;-66
2023/12/11 03:58:22;;;;;;;12.07;3.37;;;;;;;;;;5044651;28;20223;-66
2023/12/11 04:00:49;;;;;;;6.30;2.47;;;;;;;;;;5032367;28;20215;-63
2023/12/11 04:03:16;;;;;;;2.10;1.10;;;;;;;;;;5029083;28;20204;-63
2023/12/11 04:05:43;;;;;;;0.90;0.70;;;;;;;;;;5028534;28;20204;-64
2023/12/11 04:08:10;;;;;;;1.03;0.70;;;;;;;;;;5041916;28;20208;-64
2023/12/11 04:10:38;;;;;;;0.97;0.50;;;;;;;;;;5033683;28;20234;-63
2023/12/11 04:13:05;;;;;;;4.63;0.90;;;;;;;;;;5047197;28;20670;-66
2023/12/11 04:15:33;;;;;;;0.40;0.40;;;;;;;;;;5044592;28;20219;-66
2023/12/11 04:18:00;;;;;;;1.57;0.60;;;;;;;;;;5037189;28;20224;-65
2023/12/11 04:20:27;;;;;;;3.20;0.60;;;;;;;;;;5046895;28;20588;-66
2023/12/11 04:22:54;;;;;;;0.70;0.70;;;;;;;;;;5031322;28;20211;-66
2023/12/11 04:25:21;;;;;;;1.80;0.60;;;;;;;;;;5034566;28;20215;-66
2023/12/11 04:27:49;;;;;;;0.60;0.60;;;;;;;;;;5035765;28;20670;-65
2023/12/11 04:30:17;;;;;;;4.87;0.60;;;;;;;;;;5043509;28;20219;-66
2023/12/11 04:32:44;;;;;;;2.70;0.60;;;;;;;;;;5044916;28;20215;-66
2023/12/11 04:35:12;;;;;;;2.10;1.07;;;;;;;;;;5028994;28;20608;-66
2023/12/11 04:37:39;;;;;;;1.40;0.53;;;;;;;;;;5039419;28;20201;-66
2023/12/11 04:40:07;;;;;;;2.03;0.50;;;;;;;;;;5039771;28;20207;-63
2023/12/11 04:42:34;;;;;;;3.90;0.70;;;;;;;;;;5046238;28;20203;-64
2023/12/11 04:45:02;;;;;;;5.53;1.30;;;;;;;;;;5047536;28;20210;-64
2023/12/11 04:47:29;;;;;;;3.97;1.20;;;;;;;;;;5044512;28;20728;-64
2023/12/11 04:49:56;;;;;;;1.17;0.70;;;;;;;;;;5045456;28;20223;-64
2023/12/11 04:52:24;;;;;;;1.93;0.50;;;;;;;;;;5046171;28;20210;-64
2023/12/11 04:54:51;;;;;;;1.90;0.63;;;;;;;;;;5040836;28;20291;-64
2023/12/11 04:57:18;;;;;;;4.30;0.67;;;;;;;;;;5027741;28;20209;-64
2023/12/11 04:59:45;;;;;;;3.13;0.90;;;;;;;;;;5031321;28;20195;-66
2023/12/11 05:02:13;;;;;;;3.80;0.60;;;;;;;;;;5039906;28;20223;-66
2023/12/11 05:04:40;;;;;;;2.93;0.93;;;;;;;;;;5038517;28;20209;-66
2023/12/11 05:07:07;;;;;;;3.10;0.80;;;;;;;;;;5044954;28;20207;-66
2023/12/11 05:09:35;;;;;;;3.90;0.60;;;;;;;;;;5046960;28;20230;-66
2023/12/11 05:12:02;;;;;;;1.50;0.80;;;;;;;;;;5043222;28;20619;-64
2023/12/11 05:14:29;;;;;;;1.30;0.70;;;;;;;;;;5045741;28;20234;-65
2023/12/11 05:16:56;;;;;;;1.50;0.50;;;;;;;;;;5045093;28;20235;-65
2023/12/11 05:19:25;;;;;;;4.00;0.63;;;;;;;;;;5044945;28;20200;-65
2023/12/11 05:21:52;;;;;;;4.10;0.87;;;;;;;;;;5045646;28;20212;-65
2023/12/11 05:24:19;;;;;;;1.93;0.67;;;;;;;;;;5036058;28;20238;-64
2023/12/11 05:26:46;;;;;;;1.30;0.83;;;;;;;;;;5045408;28;20204;-65
2023/12/11 05:29:13;;;;;;;1.77;1.00;;;;;;;;;;5044323;28;20274;-64
2023/12/11 05:31:40;;;;;;;3.13;0.80;;;;;;;;;;5039476;28;20219;-65
2023/12/11 05:34:07;;;;;;;2.93;0.60;;;;;;;;;;5045046;28;20215;-64
2023/12/11 05:36:35;;;;;;;1.83;0.63;;;;;;;;;;5044019;28;20208;-65
2023/12/11 05:39:02;;;;;;;2.70;0.57;;;;;;;;;;5038382;28;20660;-64
2023/12/11 05:41:29;;;;;;;3.90;0.60;;;;;;;;;;5039676;28;20868;-64
2023/12/11 05:43:58;;;;;;;4.27;0.83;;;;;;;;;;5027386;28;20208;-70
2023/12/11 05:46:25;;;;;;;2.33;0.57;;;;;;;;;;5036172;28;20554;-65
2023/12/11 05:48:52;;;;;;;2.63;1.00;;;;;;;;;;5031600;28;20219;-65
2023/12/11 05:51:19;;;;;;;2.37;0.83;;;;;;;;;;5036348;28;20701;-65
2023/12/11 05:53:48;;;;;;;2.63;0.80;;;;;;;;;;5046687;28;20293;-66
2023/12/11 05:56:15;;;;;;;2.77;0.77;;;;;;;;;;5034995;28;20582;-65
2023/12/11 05:58:41;;;;;;;2.23;0.87;;;;;;;;;;5029550;28;20204;-65
2023/12/11 06:01:08;;;;;;;1.43;0.77;;;;;;;;;;5035457;28;20632;-65
2023/12/11 06:03:35;;;;;;;2.43;0.77;;;;;;;;;;5032919;28;20325;-65
2023/12/11 06:06:02;;;;;;;1.63;0.80;;;;;;;;;;5037777;28;20257;-65
2023/12/11 06:08:29;;;;;;;3.87;0.93;;;;;;;;;;5038397;28;20222;-65
2023/12/11 06:10:58;;;;;;;0.83;0.73;;;;;;;;;;5040578;28;20673;-66
2023/12/11 06:13:25;;;;;;;3.60;0.87;;;;;;;;;;5036938;28;20577;-66
2023/12/11 06:15:52;;;;;;;1.43;1.00;;;;;;;;;;5034351;28;20208;-66
2023/12/11 06:18:19;;;;;;;1.00;1.00;;;;;;;;;;5046269;28;20239;-65
2023/12/11 06:20:46;;;;;;;1.20;0.80;;;;;;;;;;5044860;28;20220;-68
2023/12/11 06:23:13;;;;;;;2.23;1.00;;;;;;;;;;5044422;28;20204;-66
2023/12/11 06:25:40;;;;;;;4.10;1.03;;;;;;;;;;5046343;28;20678;-69
2023/12/11 06:28:09;;;;;;;1.03;0.70;;;;;;;;;;5043578;28;20199;-69
2023/12/11 06:30:36;;;;;;;2.93;1.00;;;;;;;;;;5041936;28;20223;-65
2023/12/11 06:33:03;;;;;;;3.10;0.90;;;;;;;;;;5044630;28;20208;-64
2023/12/11 06:35:30;;;;;;;1.80;0.60;;;;;;;;;;5038287;28;20268;-66
2023/12/11 06:37:57;;;;;;;4.30;0.97;;;;;;;;;;5048454;28;20215;-65
2023/12/11 06:40:24;;;;;;;6.30;0.90;;;;;;;;;;5049695;28;20214;-65
2023/12/11 06:42:51;;;;;;;1.07;0.83;;;;;;;;;;5033291;28;20212;-66
2023/12/11 06:45:19;;;;;;;3.30;0.80;;;;;;;;;;5026258;28;20720;-66
2023/12/11 06:47:46;;;;;;;3.70;0.80;;;;;;;;;;5035582;28;20685;-66
2023/12/11 06:50:13;;;;;;;2.30;0.77;;;;;;;;;;5049668;28;20235;-66
2023/12/11 06:52:40;;;;;;;0.87;0.80;;;;;;;;;;5045587;28;20934;-66
2023/12/11 06:55:08;;;;;;;4.03;0.90;;;;;;;;;;5029129;28;20208;-66
2023/12/11 06:57:35;;;;;;;2.80;1.00;;;;;;;;;;5029641;28;20239;-66
2023/12/11 07:00:05;;;;;;;3.70;1.10;;;;;;;;;;5029798;28;20208;-65
2023/12/11 07:02:33;;;;;;;3.80;0.93;;;;;;;;;;5044835;28;20204;-66
2023/12/11 07:05:00;;;;;;;3.47;0.93;;;;;;;;;;5042689;28;20222;-66
2023/12/11 07:07:27;;;;;;;2.63;0.70;;;;;;;;;;5049057;28;20901;-66
2023/12/11 07:09:54;;;;;;;2.97;0.77;;;;;;;;;;5046819;28;20231;-66
2023/12/11 07:12:37;;;;;;;3.83;0.90;;;;;;;;;;5049072;28;20223;-65
2023/12/11 07:15:04;;;;;;;3.20;0.80;;;;;;;;;;5046364;28;20215;-66
2023/12/11 07:17:33;;;;;;;0.87;0.83;;;;;;;;;;5031390;28;20279;-66
2023/12/11 07:20:00;;;;;;;2.93;0.90;;;;;;;;;;5049168;28;20208;-66
2023/12/11 07:22:27;;;;;;;1.23;1.10;;;;;;;;;;5046881;28;20203;-67
2023/12/11 07:24:54;;;;;;;5.90;0.80;;;;;;;;;;5048432;28;20697;-67
2023/12/11 07:27:21;;;;;;;1.07;0.80;;;;;;;;;;5048823;28;20207;-67
2023/12/11 07:29:49;;;;;;;1.40;0.70;;;;;;;;;;5048968;28;20330;-67
2023/12/11 07:32:16;;;;;;;3.33;0.93;;;;;;;;;;5049233;28;20784;-67
2023/12/11 07:34:44;;;;;;;0.80;0.70;;;;;;;;;;5048762;28;20212;-66
2023/12/11 07:37:11;;;;;;;1.33;0.77;;;;;;;;;;5048621;28;20203;-67
2023/12/11 07:39:39;;;;;;;2.47;0.97;;;;;;;;;;5048755;28;20212;-66
2023/12/11 07:42:06;;;;;;;1.03;0.90;;;;;;;;;;5047826;28;20247;-67
2023/12/11 07:44:33;;;;;;;0.90;0.90;;;;;;;;;;5048669;28;20208;-66
2023/12/11 07:47:00;;;;;;;1.20;1.07;;;;;;;;;;5048733;28;20214;-67
2023/12/11 07:49:27;;;;;;;3.53;1.20;;;;;;;;;;5048587;28;20227;-66
2023/12/11 07:51:55;;;;;;;5.90;1.40;;;;;;;;;;5048815;28;20215;-66
2023/12/11 07:54:22;;;;;;;5.27;0.67;;;;;;;;;;5048395;28;20208;-66
2023/12/11 07:56:49;;;;;;;2.80;0.90;;;;;;;;;;5048309;28;20591;-67
2023/12/11 07:59:16;;;;;;;1.57;0.90;;;;;;;;;;5048491;28;20215;-67
2023/12/11 08:01:43;;;;;;;2.70;0.67;;;;;;;;;;5048420;28;20701;-67
2023/12/11 08:04:12;;;;;;;0.93;0.83;;;;;;;;;;5048237;28;20634;-67
2023/12/11 08:06:41;;;;;;;2.77;0.93;;;;;;;;;;5048342;28;20335;-67
2023/12/11 08:09:11;;;;;;;2.00;0.70;;;;;;;;;;5048270;28;20269;-67
2023/12/11 08:11:38;;;;;;;4.80;0.97;;;;;;;;;;5048101;28;20207;-67
2023/12/11 08:14:05;;;;;;;0.50;0.50;;;;;;;;;;5048003;28;20212;-66
2023/12/11 08:16:32;;;;;;;5.00;1.17;;;;;;;;;;5047775;28;20764;-66
2023/12/11 08:18:59;;;;;;;7.20;0.70;;;;;;;;;;5048248;28;20581;-66
2023/12/11 08:21:26;;;;;;;2.97;0.90;;;;;;;;;;5046792;28;20752;-66
2023/12/11 08:23:53;;;;;;;2.53;1.07;;;;;;;;;;5044422;28;20222;-67
2023/12/11 08:26:22;;;;;;;4.27;0.90;;;;;;;;;;5047229;28;20211;-67
2023/12/11 08:28:49;;;;;;;3.40;0.90;;;;;;;;;;5047857;28;20215;-67
2023/12/11 08:31:16;;;;;;;3.20;0.97;;;;;;;;;;5047678;28;20724;-67
2023/12/11 08:33:43;;;;;;;2.30;0.70;;;;;;;;;;5047875;28;20218;-66
2023/12/11 08:36:10;;;;;;;5.27;0.97;;;;;;;;;;5047424;28;20235;-66
2023/12/11 08:38:37;;;;;;;0.73;0.60;;;;;;;;;;5047638;28;20615;-67
2023/12/11 08:41:05;;;;;;;2.50;0.80;;;;;;;;;;5047665;28;20211;-67
2023/12/11 08:43:34;;;;;;;2.20;0.60;;;;;;;;;;5046487;28;20238;-65
2023/12/11 08:46:02;;;;;;;3.23;1.40;;;;;;;;;;5046416;28;20302;-67
2023/12/11 08:48:29;;;;;;;7.97;0.93;;;;;;;;;;5046082;28;20287;-67
2023/12/11 08:50:56;;;;;;;5.43;0.83;;;;;;;;;;5047563;28;20322;-67
2023/12/11 08:53:23;;;;;;;7.97;1.10;;;;;;;;;;5047011;28;20222;-66
2023/12/11 08:55:51;;;;;;;2.07;1.27;;;;;;;;;;5047056;28;20637;-66
2023/12/11 08:58:18;;;;;;;4.43;0.60;;;;;;;;;;5046771;28;20635;-66
2023/12/11 09:00:47;;;;;;;3.80;0.87;;;;;;;;;;5047156;28;20214;-66
2023/12/11 09:03:14;;;;;;;2.13;1.03;;;;;;;;;;5047340;28;20242;-68
2023/12/11 09:05:42;;;;;;;5.30;0.70;;;;;;;;;;5045658;28;20208;-68
2023/12/11 09:08:10;;;;;;;5.87;0.93;;;;;;;;;;5044557;28;20211;-68
2023/12/11 09:10:37;;;;;;;3.33;1.07;;;;;;;;;;5046500;28;20774;-68
2023/12/11 09:13:04;;;;;;;3.90;0.90;;;;;;;;;;5046974;28;20264;-67
2023/12/11 09:15:32;;;;;;;4.43;0.93;;;;;;;;;;5046794;28;20878;-67
2023/12/11 09:18:00;;;;;;;1.20;0.70;;;;;;;;;;5046439;28;20791;-65
2023/12/11 09:20:27;;;;;;;4.73;0.97;;;;;;;;;;5046557;28;20215;-68
2023/12/11 09:22:54;;;;;;;2.50;0.90;;;;;;;;;;5046787;28;20234;-68
2023/12/11 09:25:21;;;;;;;7.60;1.40;;;;;;;;;;5046136;28;20219;-66
2023/12/11 09:27:48;;;;;;;2.53;0.70;;;;;;;;;;5046262;28;20743;-67
2023/12/11 09:30:15;;;;;;;8.43;1.00;;;;;;;;;;5044292;28;20223;-66
2023/12/11 09:32:42;;;;;;;7.17;1.10;;;;;;;;;;5045757;28;20215;-66
2023/12/11 09:35:13;;;;;;;5.73;0.93;;;;;;;;;;5035524;28;20607;-67
2023/12/11 09:37:41;;;;;;;6.57;1.40;;;;;;;;;;5035528;28;20390;-67
2023/12/11 09:40:10;;;;;;;3.87;0.93;;;;;;;;;;5026451;28;20238;-67
2023/12/11 09:42:40;;;;;;;5.47;1.00;;;;;;;;;;5037455;28;20208;-67
2023/12/11 09:45:09;;;;;;;4.03;1.10;;;;;;;;;;5046425;28;20620;-67
2023/12/11 09:47:38;;;;;;;9.30;1.30;;;;;;;;;;5046185;28;20303;-67
2023/12/11 09:50:05;;;;;;;4.33;0.80;;;;;;;;;;5046093;28;20640;-67
2023/12/11 09:52:34;;;;;;;4.63;1.10;;;;;;;;;;5046355;28;20601;-67
2023/12/11 09:55:02;;;;;;;8.50;1.02;;;;;;;;;;5045764;28;20234;-67
2023/12/11 09:57:29;;;;;;;4.93;1.00;;;;;;;;;;5046486;28;20215;-67
2023/12/11 09:59:56;;;;;;;5.33;1.30;;;;;;;;;;5046103;28;20239;-67
2023/12/11 10:02:25;;;;;;;4.07;1.10;;;;;;;;;;5042429;28;20215;-67
2023/12/11 10:05:02;;;;;;;4.03;1.20;;;;;;;;;;5042797;28;20204;-67
2023/12/11 10:07:29;;;;;;;5.73;1.20;;;;;;;;;;5040828;28;20219;-66
2023/12/11 10:09:58;;;;;;;5.83;1.37;;;;;;;;;;5043403;28;20214;-66
2023/12/11 10:12:25;;;;;;;6.63;1.20;;;;;;;;;;5045560;28;20203;-67
2023/12/11 10:15:01;;;;;;;3.70;0.95;;;;;;;;;;5045335;28;20269;-67
2023/12/11 10:17:29;;;;;;;8.20;1.58;;;;;;;;;;5042900;28;20251;-66
2023/12/11 10:19:56;;;;;;;8.75;1.48;;;;;;;;;;5044544;28;20670;-66
2023/12/11 10:22:27;;;;;;;6.20;1.00;;;;;;;;;;5046119;28;20230;-66
2023/12/11 10:24:54;;;;;;;8.15;1.30;;;;;;;;;;5046093;28;20907;-66
2023/12/11 10:27:24;;;;;;;6.90;1.50;;;;;;;;;;5045826;28;20211;-66
2023/12/11 10:30:06;;;;;;;3.60;0.90;;;;;;;;;;5046035;28;20239;-66
2023/12/11 10:32:33;;;;;;;4.55;1.23;;;;;;;;;;5045833;28;20215;-66
2023/12/11 10:35:00;;;;;;;5.10;1.15;;;;;;;;;;5046170;28;20575;-66
2023/12/11 10:37:30;;;;;;;7.00;1.20;;;;;;;;;;5046201;28;20207;-67
2023/12/11 10:39:57;;;;;;;4.63;1.60;;;;;;;;;;5045512;28;20288;-67
2023/12/11 10:42:26;;;;;;;4.88;1.08;;;;;;;;;;5045203;28;20219;-67
2023/12/11 10:44:55;;;;;;;7.25;1.10;;;;;;;;;;5045286;28;20261;-67
2023/12/11 10:47:22;;;;;;;7.85;1.10;;;;;;;;;;5045479;28;20208;-66
2023/12/11 10:49:49;;;;;;;5.38;1.60;;;;;;;;;;5045231;28;20290;-66
2023/12/11 10:52:17;;;;;;;3.92;1.20;;;;;;;;;;5045246;28;20315;-66
2023/12/11 10:54:45;;;;;;;5.30;1.58;;;;;;;;;;5045390;28;20238;-66
2023/12/11 10:57:14;;;;;;;3.97;1.57;;;;;;;;;;5045008;28;20613;-66
2023/12/11 10:59:42;;;;;;;5.00;0.97;;;;;;;;;;5045102;28;20674;-66
2023/12/11 11:02:10;;;;;;;7.93;1.73;;;;;;;;;;5045487;28;20219;-66
2023/12/11 11:04:39;;;;;;;6.00;0.77;;;;;;;;;;5044990;28;20215;-66
2023/12/11 11:07:10;;;;;;;7.13;1.10;;;;;;;;;;5045830;28;20483;-67
2023/12/11 11:09:41;;;;;;;12.35;1.25;;;;;;;;;;5045052;28;20211;-67
2023/12/11 11:12:14;;;;;;;5.53;1.13;;;;;;;;;;5044995;28;20322;-67
2023/12/11 11:14:48;;;;;;;5.15;1.63;;;;;;;;;;5044992;28;20219;-66
2023/12/11 11:17:17;;;;;;;6.20;1.50;;;;;;;;;;5047859;28;20274;-66
2023/12/11 11:20:02;;;;;;;6.05;1.30;;;;;;;;;;5047792;28;20212;-66
2023/12/11 11:22:29;;;;;;;4.40;1.30;;;;;;;;;;5048742;28;20210;-67
2023/12/11 11:24:56;;;;;;;5.53;1.10;;;;;;;;;;5048059;28;20208;-66
2023/12/11 11:27:42;;;;;;;4.67;1.50;;;;;;;;;;5048038;28;20211;-67
2023/12/11 11:30:12;;;;;;;7.57;1.77;;;;;;;;;;5047737;28;20203;-66
2023/12/11 11:32:55;;;;;;;12.55;1.58;;;;;;;;;;5048375;28;20203;-66
2023/12/11 11:35:37;;;;;;;4.87;1.20;;;;;;;;;;5048609;28;20887;-66
2023/12/11 11:38:04;;;;;;;5.40;1.30;;;;;;;;;;5048350;28;20219;-66
2023/12/11 11:40:34;;;;;;;4.55;1.00;;;;;;;;;;5047534;28;20216;-66
2023/12/11 11:43:03;;;;;;;3.63;0.93;;;;;;;;;;5048446;28;20239;-66
2023/12/11 11:45:31;;;;;;;3.55;1.30;;;;;;;;;;5047906;28;20223;-66
2023/12/11 11:47:58;;;;;;;3.47;1.17;;;;;;;;;;5048405;28;20577;-66
2023/12/11 11:50:25;;;;;;;4.43;1.20;;;;;;;;;;5048394;28;20302;-66
2023/12/11 11:53:00;;;;;;;4.17;1.20;;;;;;;;;;5047890;28;20211;-66
2023/12/11 11:55:27;;;;;;;5.03;1.30;;;;;;;;;;5048065;28;20301;-66
2023/12/11 11:57:55;;;;;;;7.60;1.00;;;;;;;;;;5048083;28;20211;-65
2023/12/11 12:00:25;;;;;;;4.63;0.90;;;;;;;;;;5047886;28;20440;-65
2023/12/11 12:02:59;;;;;;;2.77;1.03;;;;;;;;;;5047914;28;20212;-66
2023/12/11 12:08:30;;;;;;;3.57;1.00;;;;;;;;;;5042363;28;20672;-65
2023/12/11 12:10:57;;;;;;;5.63;1.13;;;;;;;;;;5045609;28;20228;-66
2023/12/11 12:13:24;;;;;;;5.77;1.13;;;;;;;;;;5047936;28;20269;-66
2023/12/11 12:15:52;;;;;;;2.37;0.80;;;;;;;;;;5047969;28;20215;-66
2023/12/11 12:18:21;;;;;;;2.00;0.70;;;;;;;;;;5048174;28;20239;-66
2023/12/11 12:21:01;;;;;;;3.10;0.80;;;;;;;;;;5046922;28;20212;-66
2023/12/11 12:23:28;;;;;;;3.13;0.73;;;;;;;;;;5027740;28;20216;-66
2023/12/11 12:25:58;;;;;;;4.87;0.80;;;;;;;;;;5027488;28;20266;-66
2023/12/11 12:28:26;;;;;;;0.90;0.73;;;;;;;;;;5026924;28;20232;-66
2023/12/11 12:30:53;;;;;;;3.43;0.67;;;;;;;;;;5028914;28;20228;-66
2023/12/11 12:33:22;;;;;;;4.80;1.17;;;;;;;;;;5043506;28;20294;-65
2023/12/11 12:35:49;;;;;;;2.33;1.13;;;;;;;;;;5027423;28;20200;-66
2023/12/11 12:38:17;;;;;;;6.33;0.90;;;;;;;;;;5027438;28;20213;-66
2023/12/11 12:40:44;;;;;;;5.20;1.33;;;;;;;;;;5026671;28;20208;-66
2023/12/11 12:43:11;;;;;;;1.10;1.00;;;;;;;;;;5027500;28;20258;-66
2023/12/11 12:45:39;;;;;;;5.23;1.10;;;;;;;;;;5027135;28;20263;-66
2023/12/11 12:48:08;;;;;;;5.03;1.30;;;;;;;;;;5026742;28;20208;-65
2023/12/11 12:50:36;;;;;;;7.10;1.50;;;;;;;;;;5026690;28;20274;-66
2023/12/11 12:53:07;;;;;;;6.10;1.40;;;;;;;;;;5027088;28;20232;-66
2023/12/11 12:55:35;;;;;;;4.40;0.93;;;;;;;;;;5026672;28;20306;-66
2023/12/11 12:58:02;;;;;;;7.27;1.20;;;;;;;;;;5026915;28;20302;-65
2023/12/11 13:00:29;;;;;;;4.77;0.93;;;;;;;;;;5026533;28;20655;-66
2023/12/11 13:02:56;;;;;;;3.77;0.93;;;;;;;;;;5034003;28;20208;-66
2023/12/11 13:05:37;;;;;;;6.57;1.33;;;;;;;;;;5026964;28;20212;-66
2023/12/11 13:08:06;;;;;;;4.13;1.10;;;;;;;;;;5026708;28;20631;-66
2023/12/11 13:10:33;;;;;;;4.40;0.93;;;;;;;;;;5026503;28;20216;-66
2023/12/11 13:13:00;;;;;;;5.97;0.93;;;;;;;;;;5026408;28;20907;-66
2023/12/11 13:15:27;;;;;;;4.50;1.07;;;;;;;;;;5026992;28;20219;-65
2023/12/11 13:17:54;;;;;;;4.07;1.20;;;;;;;;;;5026640;28;20305;-66
2023/12/11 13:20:21;;;;;;;3.33;0.77;;;;;;;;;;5026145;28;20212;-65
2023/12/11 13:22:48;;;;;;;2.43;1.10;;;;;;;;;;5026287;28;20262;-66
2023/12/11 13:25:17;;;;;;;3.10;1.17;;;;;;;;;;5026360;28;20262;-65
2023/12/11 13:27:46;;;;;;;4.63;1.40;;;;;;;;;;5026108;28;20208;-66
2023/12/11 13:30:15;;;;;;;3.07;0.97;;;;;;;;;;5026304;28;20212;-66
2023/12/11 13:32:42;;;;;;;9.97;1.60;;;;;;;;;;5038527;28;20776;-66
2023/12/11 13:35:10;;;;;;;5.23;0.90;;;;;;;;;;5026223;28;20212;-65
2023/12/11 13:37:37;;;;;;;4.20;1.00;;;;;;;;;;5026275;28;20311;-65
2023/12/11 13:40:05;;;;;;;4.33;1.03;;;;;;;;;;5025227;28;20208;-65
2023/12/11 13:42:34;;;;;;;4.50;1.10;;;;;;;;;;5025694;28;20250;-66
2023/12/11 13:45:01;;;;;;;3.87;1.20;;;;;;;;;;5026608;28;20216;-66
2023/12/11 13:47:29;;;;;;;8.20;1.17;;;;;;;;;;5026645;28;20453;-66
2023/12/11 13:49:56;;;;;;;3.40;0.70;;;;;;;;;;5025815;28;20262;-66
2023/12/11 13:52:23;;;;;;;4.53;0.73;;;;;;;;;;5025449;28;20223;-66
2023/12/11 13:54:50;;;;;;;5.63;1.20;;;;;;;;;;5025708;28;20215;-66
2023/12/11 13:57:20;;;;;;;2.47;0.73;;;;;;;;;;5025692;28;20235;-66
2023/12/11 13:59:49;;;;;;;6.47;1.00;;;;;;;;;;5025809;28;20303;-66
2023/12/11 14:02:16;;;;;;;4.10;0.80;;;;;;;;;;5035514;28;20208;-66
2023/12/11 14:04:46;;;;;;;2.03;1.03;;;;;;;;;;5025593;28;20303;-66
2023/12/11 14:07:13;;;;;;;2.83;1.23;;;;;;;;;;5025565;28;20208;-66
2023/12/11 14:09:40;;;;;;;3.20;0.93;;;;;;;;;;5025741;28;20271;-66
2023/12/11 14:12:08;;;;;;;2.93;0.90;;;;;;;;;;5038137;28;20228;-65
2023/12/11 14:14:35;;;;;;;4.30;0.80;;;;;;;;;;5034126;28;20216;-62
2023/12/11 14:17:05;;;;;;;1.60;0.83;;;;;;;;;;5040652;28;20239;-65
2023/12/11 14:19:33;;;;;;;5.50;0.90;;;;;;;;;;5045038;28;20323;-65
2023/12/11 14:22:00;;;;;;;4.10;1.00;;;;;;;;;;5034517;28;20940;-65
2023/12/11 14:24:27;;;;;;;1.40;0.70;;;;;;;;;;5033657;28;20619;-65
2023/12/11 14:26:54;;;;;;;0.73;0.60;;;;;;;;;;5037655;28;20208;-65
2023/12/11 14:29:21;;;;;;;2.43;1.03;;;;;;;;;;5037491;28;20217;-65
2023/12/11 14:31:49;;;;;;;2.37;0.70;;;;;;;;;;5043449;28;20285;-64
2023/12/11 14:34:17;;;;;;;1.87;1.00;;;;;;;;;;5036649;28;20208;-65
2023/12/11 14:36:45;;;;;;;1.30;0.70;;;;;;;;;;5027242;28;20208;-66
2023/12/11 14:39:12;;;;;;;5.10;1.03;;;;;;;;;;5039263;28;20295;-65
2023/12/11 14:41:43;;;;;;;4.50;1.03;;;;;;;;;;5037268;28;20200;-65
2023/12/11 14:44:10;;;;;;;4.53;1.33;;;;;;;;;;5033498;28;20232;-65
2023/12/11 14:46:37;;;;;;;5.40;1.30;;;;;;;;;;5044683;28;20580;-65